createdAt,value
2023-03-05T00:02:16.386Z,-2.98
2023-03-05T00:07:19.520Z,-2.99
2023-03-05T00:12:22.263Z,-3.03
2023-03-05T00:17:25.085Z,-3.06
2023-03-05T00:22:27.940Z,-3.11
2023-03-05T00:27:30.841Z,-3.14
2023-03-05T00:32:33.745Z,-3.17
2023-03-05T00:37:36.563Z,-3.19
2023-03-05T00:42:39.424Z,-3.19
2023-03-05T00:47:42.222Z,-3.19
2023-03-05T00:52:45.269Z,-3.22
2023-03-05T00:57:48.231Z,-3.23
2023-03-05T01:02:51.131Z,-3.25
2023-03-05T01:07:54.996Z,-3.28
2023-03-05T01:12:58.037Z,-3.30
2023-03-05T01:18:00.933Z,-3.31
2023-03-05T01:23:03.799Z,-3.31
2023-03-05T01:28:06.814Z,-3.32
2023-03-05T01:33:09.855Z,-3.33
2023-03-05T01:38:12.690Z,-3.37
2023-03-05T01:43:20.280Z,-3.41
2023-03-05T01:48:23.280Z,-3.43
2023-03-05T01:53:26.030Z,-3.46
2023-03-05T01:58:29.062Z,-3.47
2023-03-05T02:03:32.150Z,-3.48
2023-03-05T02:08:35.132Z,-3.52
2023-03-05T02:13:40.826Z,-3.56
2023-03-05T02:18:43.793Z,-3.60
2023-03-05T02:23:46.747Z,-3.61
2023-03-05T02:28:53.718Z,-3.64
2023-03-05T02:33:56.781Z,-3.69
2023-03-05T02:38:59.733Z,-3.73
2023-03-05T02:44:02.533Z,-3.74
2023-03-05T02:49:06.836Z,-3.76
2023-03-05T02:54:09.650Z,-3.78
2023-03-05T02:59:12.430Z,-3.77
2023-03-05T03:04:15.263Z,-3.75
2023-03-05T03:09:18.190Z,-3.75
2023-03-05T03:14:21.102Z,-3.76
2023-03-05T03:19:23.918Z,-3.77
2023-03-05T03:24:27.087Z,-3.82
2023-03-05T03:29:30.461Z,-3.84
2023-03-05T03:34:33.341Z,-3.84
2023-03-05T03:39:36.357Z,-3.83
2023-03-05T03:44:39.228Z,-3.82
2023-03-05T03:49:42.042Z,-3.81
2023-03-05T03:54:44.863Z,-3.81
2023-03-05T03:59:47.757Z,-3.81
2023-03-05T04:04:50.692Z,-3.76
2023-03-05T04:09:53.614Z,-3.65
2023-03-05T04:14:56.503Z,-3.59
2023-03-05T04:19:59.307Z,-3.61
2023-03-05T04:25:06.466Z,-3.63
2023-03-05T04:30:12.196Z,-3.65
2023-03-05T04:35:15.221Z,-3.68
2023-03-05T04:40:18.590Z,-3.68
2023-03-05T04:45:21.526Z,-3.68
2023-03-05T04:50:24.563Z,-3.66
2023-03-05T04:55:27.436Z,-3.64
2023-03-05T05:00:30.310Z,-3.61
2023-03-05T05:05:33.290Z,-3.57
2023-03-05T05:10:40.100Z,-3.53
2023-03-05T05:15:43.147Z,-3.50
2023-03-05T05:20:48.013Z,-3.48
2023-03-05T05:26:01.467Z,-3.46
2023-03-05T05:31:09.005Z,-3.44
2023-03-05T05:36:15.338Z,-3.44
2023-03-05T05:41:18.841Z,-3.43
2023-03-05T05:46:22.103Z,-3.42
2023-03-05T05:51:25.077Z,-3.40
2023-03-05T05:56:28.010Z,-3.38
2023-03-05T06:01:31.954Z,-3.36
2023-03-05T06:06:35.133Z,-3.33
2023-03-05T06:11:38.519Z,-3.26
2023-03-05T06:16:41.612Z,-3.16
2023-03-05T06:21:44.556Z,-3.06
2023-03-05T06:26:48.648Z,-2.98
2023-03-05T06:31:51.562Z,-2.88
2023-03-05T06:36:54.337Z,-2.72
2023-03-05T06:41:57.768Z,-2.57
2023-03-05T06:47:00.545Z,-2.35
2023-03-05T06:52:04.687Z,-2.14
2023-03-05T06:57:07.549Z,-1.92
2023-03-05T07:02:11.761Z,-1.72
2023-03-05T07:07:14.719Z,-1.60
2023-03-05T07:12:17.586Z,-1.45
2023-03-05T07:17:20.410Z,-1.23
2023-03-05T07:22:23.324Z,-1.01
2023-03-05T07:27:26.396Z,-0.82
2023-03-05T07:32:29.241Z,-0.63
2023-03-05T07:37:32.214Z,-0.44
2023-03-05T07:42:35.029Z,-0.29
2023-03-05T07:47:38.023Z,-0.11
2023-03-05T07:52:41.070Z,-0.02
2023-03-05T07:57:44.020Z,0.09
2023-03-05T08:02:47.315Z,0.21
2023-03-05T08:07:50.557Z,0.30
2023-03-05T08:12:53.708Z,0.40
2023-03-05T08:17:56.601Z,0.46
2023-03-05T08:22:59.362Z,0.49
2023-03-05T08:28:02.198Z,0.53
2023-03-05T08:33:05.260Z,0.55
2023-03-05T08:38:08.149Z,0.40
2023-03-05T08:43:10.983Z,0.36
2023-03-05T08:48:13.767Z,0.37
2023-03-05T08:53:16.668Z,0.38
2023-03-05T08:58:19.474Z,0.37
2023-03-05T09:03:22.486Z,0.38
2023-03-05T09:08:25.524Z,0.40
2023-03-05T09:13:28.477Z,0.43
2023-03-05T09:18:31.565Z,0.44
2023-03-05T09:23:34.488Z,0.46
2023-03-05T09:28:37.408Z,0.48
2023-03-05T09:33:40.291Z,0.49
2023-03-05T09:38:43.155Z,0.46
2023-03-05T09:43:45.948Z,0.52
2023-03-05T09:49:20.368Z,0.57
2023-03-05T09:54:35.894Z,0.63
2023-03-05T09:59:59.201Z,0.64
2023-03-05T10:05:26.155Z,0.69
2023-03-05T10:10:40.826Z,0.72
2023-03-05T10:15:59.796Z,0.80
2023-03-05T10:21:24.624Z,0.83
2023-03-05T10:26:43.686Z,0.77
2023-03-05T10:32:06.190Z,0.72
2023-03-05T10:37:58.737Z,0.72
2023-03-05T10:43:54.338Z,0.67
2023-03-05T10:49:18.775Z,0.65
2023-03-05T10:54:34.507Z,0.70
2023-03-05T10:59:37.607Z,0.69
2023-03-05T11:04:40.744Z,0.57
2023-03-05T11:09:47.099Z,0.37
2023-03-05T11:15:14.253Z,0.40
2023-03-05T11:20:29.392Z,0.45
2023-03-05T11:25:36.061Z,0.37
2023-03-05T11:30:39.227Z,0.27
2023-03-05T11:35:43.549Z,0.07
2023-03-05T11:40:46.743Z,-0.16
2023-03-05T11:45:56.086Z,-0.25
2023-03-05T11:51:01.010Z,-0.29
2023-03-05T11:56:30.551Z,-0.40
2023-03-05T12:01:37.861Z,-0.37
2023-03-05T12:06:53.997Z,-0.45
2023-03-05T12:12:28.636Z,-0.36
2023-03-05T12:17:37.635Z,-0.26
2023-03-05T12:22:41.961Z,-0.30
2023-03-05T12:27:46.383Z,-0.43
2023-03-05T12:32:52.582Z,-0.41
2023-03-05T12:37:56.183Z,-0.54
2023-03-05T12:43:03.402Z,-0.60
2023-03-05T12:48:13.462Z,-0.58
2023-03-05T12:53:19.383Z,-0.54
2023-03-05T12:58:44.026Z,-0.52
2023-03-05T13:03:55.118Z,-0.46
2023-03-05T13:09:18.934Z,-0.39
2023-03-05T13:14:42.798Z,-0.44
2023-03-05T13:19:45.637Z,-0.49
2023-03-05T13:24:48.548Z,-0.59
2023-03-05T13:29:52.734Z,-0.61
2023-03-05T13:34:57.448Z,-0.44
2023-03-05T13:40:07.443Z,-0.36
2023-03-05T13:45:28.995Z,-0.40
2023-03-05T13:50:33.084Z,-0.51
2023-03-05T13:55:36.144Z,-0.57
2023-03-05T14:00:40.144Z,-0.53
2023-03-05T14:05:44.628Z,-0.60
2023-03-05T14:10:47.752Z,-0.60
2023-03-05T14:16:09.277Z,-0.50
2023-03-05T14:21:12.548Z,-0.47
2023-03-05T14:26:35.173Z,-0.47
2023-03-05T14:31:54.648Z,-0.47
2023-03-05T14:37:03.203Z,-0.37
2023-03-05T14:42:21.189Z,-0.32
2023-03-05T14:47:24.971Z,-0.48
2023-03-05T14:52:28.274Z,-0.47
2023-03-05T14:57:33.100Z,-0.47
2023-03-05T15:02:36.033Z,-0.53
2023-03-05T15:07:38.976Z,-0.61
2023-03-05T15:12:42.587Z,-0.58
2023-03-05T15:17:51.823Z,-0.58
2023-03-05T15:22:55.207Z,-0.59
2023-03-05T15:28:00.514Z,-0.55
2023-03-05T15:33:12.270Z,-0.55
2023-03-05T15:38:16.229Z,-0.56
2023-03-05T15:43:19.578Z,-0.64
2023-03-05T15:48:22.504Z,-0.76
2023-03-05T15:53:25.440Z,-0.79
2023-03-05T15:58:28.304Z,-0.83
2023-03-05T16:03:31.339Z,-0.84
2023-03-05T16:08:34.306Z,-0.83
2023-03-05T16:13:37.149Z,-0.89
2023-03-05T16:18:42.110Z,-0.92
2023-03-05T16:23:45.353Z,-0.98
2023-03-05T16:28:48.325Z,-0.97
2023-03-05T16:33:51.621Z,-1.01
2023-03-05T16:38:59.257Z,-1.08
2023-03-05T16:44:02.138Z,-1.11
2023-03-05T16:49:05.230Z,-1.15
2023-03-05T16:54:10.057Z,-1.21
2023-03-05T16:59:13.450Z,-1.22
2023-03-05T17:04:16.681Z,-1.28
2023-03-05T17:09:24.093Z,-1.32
2023-03-05T17:14:27.086Z,-1.34
2023-03-05T17:19:30.109Z,-1.34
2023-03-05T17:24:33.546Z,-1.34
2023-03-05T17:29:36.378Z,-1.39
2023-03-05T17:34:39.190Z,-1.41
2023-03-05T17:39:42.136Z,-1.48
2023-03-05T17:44:45.247Z,-1.60
2023-03-05T17:49:49.221Z,-1.69
2023-03-05T17:54:53.446Z,-1.73
2023-03-05T17:59:56.550Z,-1.85
2023-03-05T18:04:59.539Z,-1.96
2023-03-05T18:10:03.471Z,-2.02
2023-03-05T18:15:09.109Z,-2.09
2023-03-05T18:20:30.833Z,-2.16
2023-03-05T18:25:33.932Z,-2.22
2023-03-05T18:30:41.245Z,-2.27
2023-03-05T18:35:44.477Z,-2.33
2023-03-05T18:40:47.932Z,-2.42
2023-03-05T18:45:52.877Z,-2.48
2023-03-05T18:50:56.014Z,-2.53
2023-03-05T18:55:59.064Z,-2.57
2023-03-05T19:01:03.221Z,-2.63
2023-03-05T19:06:07.071Z,-2.68
2023-03-05T19:11:18.110Z,-2.74
2023-03-05T19:16:29.293Z,-2.76
2023-03-05T19:21:32.338Z,-2.76
2023-03-05T19:26:35.206Z,-2.74
2023-03-05T19:31:38.354Z,-2.69
2023-03-05T19:36:41.206Z,-2.72
2023-03-05T19:41:44.082Z,-2.79
2023-03-05T19:46:48.907Z,-2.82
2023-03-05T19:51:52.725Z,-2.86
2023-03-05T19:56:55.931Z,-2.90
2023-03-05T20:01:58.876Z,-2.93
2023-03-05T20:07:03.821Z,-2.97
2023-03-05T20:12:07.660Z,-3.01
2023-03-05T20:17:10.665Z,-3.02
2023-03-05T20:22:13.551Z,-3.08
2023-03-05T20:27:16.395Z,-3.12
2023-03-05T20:32:19.849Z,-3.18
2023-03-05T20:38:20.756Z,-3.23
2023-03-05T20:43:23.839Z,-3.30
2023-03-05T20:48:29.224Z,-3.37
2023-03-05T20:53:32.084Z,-3.41
2023-03-05T20:58:34.970Z,-3.51
2023-03-05T21:03:38.916Z,-3.55
2023-03-05T21:08:41.990Z,-3.59
2023-03-05T21:13:44.943Z,-3.63
2023-03-05T21:18:48.199Z,-3.67
2023-03-05T21:23:52.142Z,-3.71
2023-03-05T21:28:55.020Z,-3.76
2023-03-05T21:33:57.816Z,-3.77
2023-03-05T21:39:00.760Z,-3.79
2023-03-05T21:44:04.215Z,-3.81
2023-03-05T21:49:06.981Z,-3.87
2023-03-05T21:54:09.826Z,-3.91
2023-03-05T21:59:12.708Z,-3.95
2023-03-05T22:04:15.546Z,-3.99
2023-03-05T22:09:18.383Z,-4.03
2023-03-05T22:14:21.217Z,-4.06
2023-03-05T22:19:25.326Z,-4.08
2023-03-05T22:24:28.152Z,-4.16
2023-03-05T22:29:30.963Z,-4.25
2023-03-05T22:34:33.853Z,-4.25
2023-03-05T22:39:36.627Z,-4.24
2023-03-05T22:44:39.455Z,-4.19
2023-03-05T22:49:42.365Z,-4.18
2023-03-05T22:54:45.218Z,-4.16
2023-03-05T22:59:49.843Z,-4.14
2023-03-05T23:04:55.003Z,-4.11
2023-03-05T23:10:04.812Z,-4.11
2023-03-05T23:15:11.638Z,-4.13
2023-03-05T23:20:17.144Z,-4.16
2023-03-05T23:25:22.674Z,-4.18
2023-03-05T23:30:27.382Z,-4.21
2023-03-05T23:35:36.423Z,-4.23
2023-03-05T23:40:48.205Z,-4.23
2023-03-05T23:45:54.898Z,-4.26
2023-03-05T23:50:57.959Z,-4.28
2023-03-05T23:56:00.905Z,-4.29
